sensor_id;sensor_type;location;lat;lon;timestamp;P1;durP1;ratioP1;P2;durP2;ratioP2
8450;SDS011;4262;50.980;13.892;2023-12-20T00:01:58;6.73;;;3.33;;
8450;SDS011;4262;50.980;13.892;2023-12-20T00:04:25;9.40;;;4.10;;
8450;SDS011;4262;50.980;13.892;2023-12-20T00:06:53;7.83;;;3.83;;
8450;SDS011;4262;50.980;13.892;2023-12-20T00:09:20;8.00;;;4.13;;
8450;SDS011;4262;50.980;13.892;2023-12-20T00:11:47;7.40;;;3.37;;
8450;SDS011;4262;50.980;13.892;2023-12-20T00:14:14;7.33;;;3.80;;
8450;SDS011;4262;50.980;13.892;2023-12-20T00:16:40;7.73;;;3.87;;
8450;SDS011;4262;50.980;13.892;2023-12-20T00:19:07;6.67;;;3.13;;
8450;SDS011;4262;50.980;13.892;2023-12-20T00:21:34;7.30;;;3.43;;
8450;SDS011;4262;50.980;13.892;2023-12-20T00:24:02;9.07;;;4.53;;
8450;SDS011;4262;50.980;13.892;2023-12-20T00:26:30;8.77;;;3.90;;
8450;SDS011;4262;50.980;13.892;2023-12-20T00:28:56;10.23;;;3.67;;
8450;SDS011;4262;50.980;13.892;2023-12-20T00:31:23;7.30;;;3.80;;
8450;SDS011;4262;50.980;13.892;2023-12-20T00:33:50;8.90;;;4.50;;
8450;SDS011;4262;50.980;13.892;2023-12-20T00:36:17;8.03;;;4.43;;
8450;SDS011;4262;50.980;13.892;2023-12-20T00:38:44;11.83;;;3.90;;
8450;SDS011;4262;50.980;13.892;2023-12-20T00:41:12;7.07;;;4.27;;
8450;SDS011;4262;50.980;13.892;2023-12-20T00:43:39;8.43;;;4.23;;
8450;SDS011;4262;50.980;13.892;2023-12-20T00:46:05;8.57;;;4.00;;
8450;SDS011;4262;50.980;13.892;2023-12-20T00:48:32;7.10;;;3.90;;
8450;SDS011;4262;50.980;13.892;2023-12-20T00:50:58;7.90;;;3.90;;
8450;SDS011;4262;50.980;13.892;2023-12-20T00:53:25;8.43;;;3.93;;
8450;SDS011;4262;50.980;13.892;2023-12-20T00:55:52;6.97;;;3.80;;
8450;SDS011;4262;50.980;13.892;2023-12-20T00:58:20;14.80;;;3.53;;
8450;SDS011;4262;50.980;13.892;2023-12-20T01:00:47;7.43;;;4.17;;
8450;SDS011;4262;50.980;13.892;2023-12-20T01:03:14;6.77;;;3.17;;
8450;SDS011;4262;50.980;13.892;2023-12-20T01:05:41;7.10;;;3.30;;
8450;SDS011;4262;50.980;13.892;2023-12-20T01:08:08;6.83;;;3.63;;
8450;SDS011;4262;50.980;13.892;2023-12-20T01:10:34;7.13;;;3.87;;
8450;SDS011;4262;50.980;13.892;2023-12-20T01:13:01;7.63;;;3.90;;
8450;SDS011;4262;50.980;13.892;2023-12-20T01:15:30;6.07;;;3.00;;
8450;SDS011;4262;50.980;13.892;2023-12-20T01:17:56;7.60;;;3.67;;
8450;SDS011;4262;50.980;13.892;2023-12-20T01:20:24;7.33;;;3.33;;
8450;SDS011;4262;50.980;13.892;2023-12-20T01:22:51;6.00;;;2.70;;
8450;SDS011;4262;50.980;13.892;2023-12-20T01:25:18;6.57;;;3.23;;
8450;SDS011;4262;50.980;13.892;2023-12-20T01:27:45;6.43;;;3.63;;
8450;SDS011;4262;50.980;13.892;2023-12-20T01:30:12;6.97;;;4.00;;
8450;SDS011;4262;50.980;13.892;2023-12-20T01:32:41;6.73;;;3.60;;
8450;SDS011;4262;50.980;13.892;2023-12-20T01:35:08;6.03;;;3.03;;
8450;SDS011;4262;50.980;13.892;2023-12-20T01:37:34;6.20;;;3.17;;
8450;SDS011;4262;50.980;13.892;2023-12-20T01:40:01;6.20;;;3.43;;
8450;SDS011;4262;50.980;13.892;2023-12-20T01:42:28;6.00;;;3.00;;
8450;SDS011;4262;50.980;13.892;2023-12-20T01:44:55;6.07;;;2.63;;
8450;SDS011;4262;50.980;13.892;2023-12-20T01:47:22;7.33;;;3.10;;
8450;SDS011;4262;50.980;13.892;2023-12-20T01:49:50;5.50;;;2.53;;
8450;SDS011;4262;50.980;13.892;2023-12-20T01:52:17;5.60;;;3.10;;
8450;SDS011;4262;50.980;13.892;2023-12-20T01:54:45;6.33;;;2.60;;
8450;SDS011;4262;50.980;13.892;2023-12-20T01:57:14;5.50;;;2.83;;
8450;SDS011;4262;50.980;13.892;2023-12-20T01:59:41;6.03;;;2.73;;
8450;SDS011;4262;50.980;13.892;2023-12-20T02:02:08;6.37;;;3.00;;
8450;SDS011;4262;50.980;13.892;2023-12-20T02:04:37;5.67;;;2.40;;
8450;SDS011;4262;50.980;13.892;2023-12-20T02:07:06;5.57;;;2.73;;
8450;SDS011;4262;50.980;13.892;2023-12-20T02:09:33;5.90;;;2.70;;
8450;SDS011;4262;50.980;13.892;2023-12-20T02:12:01;6.07;;;2.83;;
8450;SDS011;4262;50.980;13.892;2023-12-20T02:14:28;5.40;;;2.40;;
8450;SDS011;4262;50.980;13.892;2023-12-20T02:16:54;5.30;;;2.27;;
8450;SDS011;4262;50.980;13.892;2023-12-20T02:19:21;5.07;;;2.20;;
8450;SDS011;4262;50.980;13.892;2023-12-20T02:21:49;5.67;;;2.70;;
8450;SDS011;4262;50.980;13.892;2023-12-20T02:24:16;5.23;;;2.70;;
8450;SDS011;4262;50.980;13.892;2023-12-20T02:26:44;5.40;;;2.60;;
8450;SDS011;4262;50.980;13.892;2023-12-20T02:29:10;5.77;;;2.83;;
8450;SDS011;4262;50.980;13.892;2023-12-20T02:31:37;6.87;;;2.20;;
8450;SDS011;4262;50.980;13.892;2023-12-20T02:34:04;5.40;;;2.60;;
8450;SDS011;4262;50.980;13.892;2023-12-20T02:36:31;6.30;;;3.00;;
8450;SDS011;4262;50.980;13.892;2023-12-20T02:38:59;4.87;;;1.97;;
8450;SDS011;4262;50.980;13.892;2023-12-20T02:41:26;5.40;;;2.40;;
8450;SDS011;4262;50.980;13.892;2023-12-20T02:43:53;7.13;;;2.03;;
8450;SDS011;4262;50.980;13.892;2023-12-20T02:46:20;5.33;;;2.43;;
8450;SDS011;4262;50.980;13.892;2023-12-20T02:48:47;5.13;;;2.40;;
8450;SDS011;4262;50.980;13.892;2023-12-20T02:51:13;4.97;;;2.23;;
8450;SDS011;4262;50.980;13.892;2023-12-20T02:53:40;5.60;;;2.33;;
8450;SDS011;4262;50.980;13.892;2023-12-20T02:56:08;6.50;;;2.33;;
8450;SDS011;4262;50.980;13.892;2023-12-20T02:58:35;4.70;;;2.00;;
8450;SDS011;4262;50.980;13.892;2023-12-20T03:01:02;4.90;;;2.13;;
8450;SDS011;4262;50.980;13.892;2023-12-20T03:03:29;4.90;;;2.00;;
8450;SDS011;4262;50.980;13.892;2023-12-20T03:05:56;5.70;;;3.03;;
8450;SDS011;4262;50.980;13.892;2023-12-20T03:08:23;4.90;;;2.20;;
8450;SDS011;4262;50.980;13.892;2023-12-20T03:10:49;5.07;;;2.37;;
8450;SDS011;4262;50.980;13.892;2023-12-20T03:15:46;5.00;;;2.20;;
8450;SDS011;4262;50.980;13.892;2023-12-20T03:18:12;5.30;;;2.20;;
8450;SDS011;4262;50.980;13.892;2023-12-20T03:20:39;5.50;;;2.10;;
8450;SDS011;4262;50.980;13.892;2023-12-20T03:23:07;6.80;;;2.20;;
8450;SDS011;4262;50.980;13.892;2023-12-20T03:25:33;5.10;;;2.60;;
8450;SDS011;4262;50.980;13.892;2023-12-20T03:28:00;4.87;;;2.20;;
8450;SDS011;4262;50.980;13.892;2023-12-20T03:30:28;4.70;;;1.83;;
8450;SDS011;4262;50.980;13.892;2023-12-20T03:32:55;4.83;;;2.00;;
8450;SDS011;4262;50.980;13.892;2023-12-20T03:35:21;4.70;;;1.97;;
8450;SDS011;4262;50.980;13.892;2023-12-20T03:37:48;5.07;;;2.37;;
8450;SDS011;4262;50.980;13.892;2023-12-20T03:40:15;4.77;;;2.10;;
8450;SDS011;4262;50.980;13.892;2023-12-20T03:42:42;4.80;;;2.17;;
8450;SDS011;4262;50.980;13.892;2023-12-20T03:45:09;5.13;;;2.27;;
8450;SDS011;4262;50.980;13.892;2023-12-20T03:47:37;4.33;;;1.47;;
8450;SDS011;4262;50.980;13.892;2023-12-20T03:50:04;5.00;;;2.10;;
8450;SDS011;4262;50.980;13.892;2023-12-20T03:52:31;4.93;;;2.37;;
8450;SDS011;4262;50.980;13.892;2023-12-20T03:54:58;4.30;;;1.60;;
8450;SDS011;4262;50.980;13.892;2023-12-20T03:57:25;4.93;;;2.13;;
8450;SDS011;4262;50.980;13.892;2023-12-20T03:59:51;4.70;;;2.00;;
8450;SDS011;4262;50.980;13.892;2023-12-20T04:02:18;4.40;;;1.57;;
8450;SDS011;4262;50.980;13.892;2023-12-20T04:04:47;4.87;;;2.13;;
8450;SDS011;4262;50.980;13.892;2023-12-20T04:07:12;4.53;;;1.80;;
8450;SDS011;4262;50.980;13.892;2023-12-20T04:09:40;4.50;;;1.90;;
8450;SDS011;4262;50.980;13.892;2023-12-20T04:12:07;4.40;;;1.90;;
8450;SDS011;4262;50.980;13.892;2023-12-20T04:14:34;4.90;;;1.90;;
8450;SDS011;4262;50.980;13.892;2023-12-20T04:17:00;4.67;;;2.13;;
8450;SDS011;4262;50.980;13.892;2023-12-20T04:19:27;4.60;;;2.00;;
8450;SDS011;4262;50.980;13.892;2023-12-20T04:21:55;7.77;;;1.93;;
8450;SDS011;4262;50.980;13.892;2023-12-20T04:24:22;4.70;;;1.90;;
8450;SDS011;4262;50.980;13.892;2023-12-20T04:26:49;5.83;;;1.73;;
8450;SDS011;4262;50.980;13.892;2023-12-20T04:29:15;4.50;;;1.60;;
8450;SDS011;4262;50.980;13.892;2023-12-20T04:31:42;5.53;;;2.03;;
8450;SDS011;4262;50.980;13.892;2023-12-20T04:34:09;5.00;;;2.13;;
8450;SDS011;4262;50.980;13.892;2023-12-20T04:36:36;4.50;;;1.60;;
8450;SDS011;4262;50.980;13.892;2023-12-20T04:39:04;4.70;;;1.70;;
8450;SDS011;4262;50.980;13.892;2023-12-20T04:41:32;4.97;;;1.90;;
8450;SDS011;4262;50.980;13.892;2023-12-20T04:43:58;4.37;;;1.40;;
8450;SDS011;4262;50.980;13.892;2023-12-20T04:46:26;5.70;;;2.10;;
8450;SDS011;4262;50.980;13.892;2023-12-20T04:48:52;4.47;;;1.47;;
8450;SDS011;4262;50.980;13.892;2023-12-20T04:51:19;4.63;;;1.90;;
8450;SDS011;4262;50.980;13.892;2023-12-20T04:53:46;4.67;;;1.63;;
8450;SDS011;4262;50.980;13.892;2023-12-20T04:56:15;4.83;;;1.67;;
8450;SDS011;4262;50.980;13.892;2023-12-20T04:58:41;4.37;;;1.50;;
8450;SDS011;4262;50.980;13.892;2023-12-20T05:01:08;4.50;;;1.57;;
8450;SDS011;4262;50.980;13.892;2023-12-20T05:03:35;5.20;;;2.00;;
8450;SDS011;4262;50.980;13.892;2023-12-20T05:06:02;4.60;;;1.67;;
8450;SDS011;4262;50.980;13.892;2023-12-20T05:08:29;5.53;;;1.70;;
8450;SDS011;4262;50.980;13.892;2023-12-20T05:10:56;4.60;;;1.60;;
8450;SDS011;4262;50.980;13.892;2023-12-20T05:13:24;4.67;;;1.93;;
8450;SDS011;4262;50.980;13.892;2023-12-20T05:15:51;6.43;;;1.63;;
8450;SDS011;4262;50.980;13.892;2023-12-20T05:18:18;4.70;;;1.70;;
8450;SDS011;4262;50.980;13.892;2023-12-20T05:20:44;5.10;;;1.70;;
8450;SDS011;4262;50.980;13.892;2023-12-20T05:23:11;4.50;;;1.60;;
8450;SDS011;4262;50.980;13.892;2023-12-20T05:25:38;5.10;;;2.00;;
8450;SDS011;4262;50.980;13.892;2023-12-20T05:28:05;4.73;;;1.70;;
8450;SDS011;4262;50.980;13.892;2023-12-20T05:30:33;5.63;;;1.97;;
8450;SDS011;4262;50.980;13.892;2023-12-20T05:33:00;4.53;;;1.70;;
8450;SDS011;4262;50.980;13.892;2023-12-20T05:35:27;5.03;;;2.17;;
8450;SDS011;4262;50.980;13.892;2023-12-20T05:37:54;4.70;;;1.70;;
8450;SDS011;4262;50.980;13.892;2023-12-20T05:40:21;5.97;;;2.23;;
8450;SDS011;4262;50.980;13.892;2023-12-20T05:42:47;5.20;;;2.43;;
8450;SDS011;4262;50.980;13.892;2023-12-20T05:45:14;5.40;;;2.00;;
8450;SDS011;4262;50.980;13.892;2023-12-20T05:47:43;5.27;;;2.43;;
8450;SDS011;4262;50.980;13.892;2023-12-20T05:50:09;5.00;;;2.20;;
8450;SDS011;4262;50.980;13.892;2023-12-20T05:52:36;5.20;;;1.70;;
8450;SDS011;4262;50.980;13.892;2023-12-20T05:55:03;4.67;;;1.80;;
8450;SDS011;4262;50.980;13.892;2023-12-20T05:57:30;4.70;;;1.73;;
8450;SDS011;4262;50.980;13.892;2023-12-20T05:59:57;5.43;;;2.50;;
8450;SDS011;4262;50.980;13.892;2023-12-20T06:02:24;4.67;;;1.93;;
8450;SDS011;4262;50.980;13.892;2023-12-20T06:04:52;4.83;;;2.30;;
8450;SDS011;4262;50.980;13.892;2023-12-20T06:07:20;5.00;;;1.90;;
8450;SDS011;4262;50.980;13.892;2023-12-20T06:09:46;4.60;;;2.03;;
8450;SDS011;4262;50.980;13.892;2023-12-20T06:12:13;10.20;;;1.90;;
8450;SDS011;4262;50.980;13.892;2023-12-20T06:14:39;4.70;;;2.07;;
8450;SDS011;4262;50.980;13.892;2023-12-20T06:17:06;4.90;;;1.90;;
8450;SDS011;4262;50.980;13.892;2023-12-20T06:19:33;5.23;;;2.60;;
8450;SDS011;4262;50.980;13.892;2023-12-20T06:22:00;7.27;;;1.90;;
8450;SDS011;4262;50.980;13.892;2023-12-20T06:24:27;4.90;;;2.17;;
8450;SDS011;4262;50.980;13.892;2023-12-20T06:26:54;4.87;;;2.00;;
8450;SDS011;4262;50.980;13.892;2023-12-20T06:29:21;6.60;;;2.33;;
8450;SDS011;4262;50.980;13.892;2023-12-20T06:31:48;4.77;;;1.80;;
8450;SDS011;4262;50.980;13.892;2023-12-20T06:34:15;12.33;;;2.10;;
8450;SDS011;4262;50.980;13.892;2023-12-20T06:36:42;5.00;;;1.93;;
8450;SDS011;4262;50.980;13.892;2023-12-20T06:39:10;7.73;;;2.17;;
8450;SDS011;4262;50.980;13.892;2023-12-20T06:41:37;9.00;;;2.30;;
8450;SDS011;4262;50.980;13.892;2023-12-20T06:44:04;5.07;;;2.37;;
8450;SDS011;4262;50.980;13.892;2023-12-20T06:46:31;5.40;;;2.30;;
8450;SDS011;4262;50.980;13.892;2023-12-20T06:48:58;5.37;;;2.43;;
8450;SDS011;4262;50.980;13.892;2023-12-20T06:51:25;5.20;;;2.80;;
8450;SDS011;4262;50.980;13.892;2023-12-20T06:53:52;9.60;;;2.87;;
8450;SDS011;4262;50.980;13.892;2023-12-20T06:56:20;5.60;;;2.63;;
8450;SDS011;4262;50.980;13.892;2023-12-20T06:58:47;6.00;;;2.70;;
8450;SDS011;4262;50.980;13.892;2023-12-20T07:01:14;7.17;;;3.13;;
8450;SDS011;4262;50.980;13.892;2023-12-20T07:03:42;9.70;;;2.70;;
8450;SDS011;4262;50.980;13.892;2023-12-20T07:06:09;6.00;;;3.10;;
8450;SDS011;4262;50.980;13.892;2023-12-20T07:08:35;6.83;;;3.10;;
8450;SDS011;4262;50.980;13.892;2023-12-20T07:11:02;7.50;;;3.60;;
8450;SDS011;4262;50.980;13.892;2023-12-20T07:13:31;5.80;;;3.00;;
8450;SDS011;4262;50.980;13.892;2023-12-20T07:15:57;6.27;;;3.17;;
8450;SDS011;4262;50.980;13.892;2023-12-20T07:18:24;7.27;;;3.53;;
8450;SDS011;4262;50.980;13.892;2023-12-20T07:20:51;5.43;;;2.87;;
8450;SDS011;4262;50.980;13.892;2023-12-20T07:23:20;6.10;;;2.60;;
8450;SDS011;4262;50.980;13.892;2023-12-20T07:25:46;5.90;;;3.37;;
8450;SDS011;4262;50.980;13.892;2023-12-20T07:28:13;5.70;;;2.83;;
8450;SDS011;4262;50.980;13.892;2023-12-20T07:30:41;5.70;;;3.13;;
8450;SDS011;4262;50.980;13.892;2023-12-20T07:33:08;6.13;;;3.30;;
8450;SDS011;4262;50.980;13.892;2023-12-20T07:35:35;8.03;;;3.80;;
8450;SDS011;4262;50.980;13.892;2023-12-20T07:38:02;8.57;;;3.13;;
8450;SDS011;4262;50.980;13.892;2023-12-20T07:40:29;6.33;;;3.53;;
8450;SDS011;4262;50.980;13.892;2023-12-20T07:42:56;6.33;;;2.87;;
8450;SDS011;4262;50.980;13.892;2023-12-20T07:45:23;6.20;;;3.10;;
8450;SDS011;4262;50.980;13.892;2023-12-20T07:47:51;6.23;;;3.57;;
8450;SDS011;4262;50.980;13.892;2023-12-20T07:50:18;6.90;;;3.27;;
8450;SDS011;4262;50.980;13.892;2023-12-20T07:52:48;6.43;;;3.37;;
8450;SDS011;4262;50.980;13.892;2023-12-20T07:55:15;8.73;;;4.63;;
8450;SDS011;4262;50.980;13.892;2023-12-20T07:57:42;6.47;;;3.67;;
8450;SDS011;4262;50.980;13.892;2023-12-20T08:00:09;8.63;;;3.87;;
8450;SDS011;4262;50.980;13.892;2023-12-20T08:02:36;7.33;;;4.20;;
8450;SDS011;4262;50.980;13.892;2023-12-20T08:05:05;6.57;;;3.80;;
8450;SDS011;4262;50.980;13.892;2023-12-20T08:07:32;6.33;;;3.63;;
8450;SDS011;4262;50.980;13.892;2023-12-20T08:09:59;6.47;;;3.73;;
8450;SDS011;4262;50.980;13.892;2023-12-20T08:12:26;6.30;;;3.63;;
8450;SDS011;4262;50.980;13.892;2023-12-20T08:14:53;6.10;;;3.37;;
8450;SDS011;4262;50.980;13.892;2023-12-20T08:17:20;9.23;;;3.50;;
8450;SDS011;4262;50.980;13.892;2023-12-20T08:19:48;5.83;;;3.07;;
8450;SDS011;4262;50.980;13.892;2023-12-20T08:22:17;5.93;;;2.83;;
8450;SDS011;4262;50.980;13.892;2023-12-20T08:24:43;6.43;;;3.27;;
8450;SDS011;4262;50.980;13.892;2023-12-20T08:27:10;7.13;;;3.37;;
8450;SDS011;4262;50.980;13.892;2023-12-20T08:29:37;8.30;;;3.17;;
8450;SDS011;4262;50.980;13.892;2023-12-20T08:32:04;7.97;;;3.57;;
8450;SDS011;4262;50.980;13.892;2023-12-20T08:34:31;9.03;;;3.30;;
8450;SDS011;4262;50.980;13.892;2023-12-20T08:36:58;7.90;;;3.00;;
8450;SDS011;4262;50.980;13.892;2023-12-20T08:39:26;6.33;;;2.77;;
8450;SDS011;4262;50.980;13.892;2023-12-20T08:41:55;6.70;;;3.27;;
8450;SDS011;4262;50.980;13.892;2023-12-20T08:44:22;7.60;;;3.20;;
8450;SDS011;4262;50.980;13.892;2023-12-20T08:46:48;7.80;;;3.03;;
8450;SDS011;4262;50.980;13.892;2023-12-20T08:49:15;7.13;;;3.53;;
8450;SDS011;4262;50.980;13.892;2023-12-20T08:51:42;6.73;;;2.97;;
8450;SDS011;4262;50.980;13.892;2023-12-20T08:54:09;6.70;;;2.97;;
8450;SDS011;4262;50.980;13.892;2023-12-20T08:56:37;5.70;;;2.60;;
8450;SDS011;4262;50.980;13.892;2023-12-20T08:59:04;8.30;;;3.73;;
8450;SDS011;4262;50.980;13.892;2023-12-20T09:01:31;7.97;;;3.17;;
8450;SDS011;4262;50.980;13.892;2023-12-20T09:03:58;12.00;;;3.53;;
8450;SDS011;4262;50.980;13.892;2023-12-20T09:06:24;8.40;;;3.40;;
8450;SDS011;4262;50.980;13.892;2023-12-20T09:08:51;6.20;;;2.73;;
8450;SDS011;4262;50.980;13.892;2023-12-20T09:11:18;8.27;;;2.93;;
8450;SDS011;4262;50.980;13.892;2023-12-20T09:13:46;7.60;;;3.10;;
8450;SDS011;4262;50.980;13.892;2023-12-20T09:16:13;8.23;;;2.33;;
8450;SDS011;4262;50.980;13.892;2023-12-20T09:18:41;9.47;;;2.90;;
8450;SDS011;4262;50.980;13.892;2023-12-20T09:21:08;8.23;;;2.70;;
8450;SDS011;4262;50.980;13.892;2023-12-20T09:23:34;11.63;;;2.73;;
8450;SDS011;4262;50.980;13.892;2023-12-20T09:26:02;6.83;;;2.40;;
8450;SDS011;4262;50.980;13.892;2023-12-20T09:28:29;6.97;;;2.43;;
8450;SDS011;4262;50.980;13.892;2023-12-20T09:30:59;7.23;;;2.50;;
8450;SDS011;4262;50.980;13.892;2023-12-20T09:33:26;7.53;;;2.30;;
8450;SDS011;4262;50.980;13.892;2023-12-20T09:35:53;6.40;;;2.57;;
8450;SDS011;4262;50.980;13.892;2023-12-20T09:38:19;8.93;;;2.80;;
8450;SDS011;4262;50.980;13.892;2023-12-20T09:40:46;12.00;;;3.93;;
8450;SDS011;4262;50.980;13.892;2023-12-20T09:43:14;9.10;;;3.40;;
8450;SDS011;4262;50.980;13.892;2023-12-20T09:45:41;8.50;;;2.70;;
8450;SDS011;4262;50.980;13.892;2023-12-20T09:48:13;9.07;;;2.40;;
8450;SDS011;4262;50.980;13.892;2023-12-20T09:50:42;7.87;;;2.60;;
8450;SDS011;4262;50.980;13.892;2023-12-20T09:53:10;9.63;;;3.30;;
8450;SDS011;4262;50.980;13.892;2023-12-20T09:55:41;6.53;;;1.90;;
8450;SDS011;4262;50.980;13.892;2023-12-20T09:58:08;6.10;;;2.30;;
8450;SDS011;4262;50.980;13.892;2023-12-20T10:00:35;6.50;;;2.33;;
8450;SDS011;4262;50.980;13.892;2023-12-20T10:03:02;12.07;;;2.30;;
8450;SDS011;4262;50.980;13.892;2023-12-20T10:05:32;9.20;;;3.00;;
8450;SDS011;4262;50.980;13.892;2023-12-20T10:08:00;6.80;;;2.30;;
8450;SDS011;4262;50.980;13.892;2023-12-20T10:10:27;6.40;;;2.30;;
8450;SDS011;4262;50.980;13.892;2023-12-20T10:13:01;7.47;;;2.40;;
8450;SDS011;4262;50.980;13.892;2023-12-20T10:15:29;13.03;;;2.33;;
8450;SDS011;4262;50.980;13.892;2023-12-20T10:17:57;6.13;;;2.17;;
8450;SDS011;4262;50.980;13.892;2023-12-20T10:20:24;9.10;;;2.47;;
8450;SDS011;4262;50.980;13.892;2023-12-20T10:22:53;8.60;;;2.37;;
8450;SDS011;4262;50.980;13.892;2023-12-20T10:25:20;6.20;;;2.00;;
8450;SDS011;4262;50.980;13.892;2023-12-20T10:27:49;8.07;;;2.30;;
8450;SDS011;4262;50.980;13.892;2023-12-20T10:30:16;7.00;;;1.97;;
8450;SDS011;4262;50.980;13.892;2023-12-20T10:32:43;11.33;;;2.53;;
8450;SDS011;4262;50.980;13.892;2023-12-20T10:35:10;8.43;;;2.20;;
8450;SDS011;4262;50.980;13.892;2023-12-20T10:37:37;8.37;;;2.23;;
8450;SDS011;4262;50.980;13.892;2023-12-20T10:40:06;9.67;;;2.47;;
8450;SDS011;4262;50.980;13.892;2023-12-20T10:42:34;9.23;;;2.53;;
8450;SDS011;4262;50.980;13.892;2023-12-20T10:45:03;6.27;;;2.07;;
8450;SDS011;4262;50.980;13.892;2023-12-20T10:47:30;10.73;;;2.43;;
8450;SDS011;4262;50.980;13.892;2023-12-20T10:49:59;9.57;;;2.97;;
8450;SDS011;4262;50.980;13.892;2023-12-20T10:52:25;9.83;;;2.40;;
8450;SDS011;4262;50.980;13.892;2023-12-20T10:54:55;7.97;;;2.57;;
8450;SDS011;4262;50.980;13.892;2023-12-20T10:57:23;12.97;;;2.60;;
8450;SDS011;4262;50.980;13.892;2023-12-20T10:59:54;12.87;;;3.20;;
8450;SDS011;4262;50.980;13.892;2023-12-20T11:02:22;6.53;;;2.30;;
8450;SDS011;4262;50.980;13.892;2023-12-20T11:04:50;9.33;;;2.37;;
8450;SDS011;4262;50.980;13.892;2023-12-20T11:07:22;9.00;;;2.23;;
8450;SDS011;4262;50.980;13.892;2023-12-20T11:09:55;7.47;;;2.57;;
8450;SDS011;4262;50.980;13.892;2023-12-20T11:12:28;7.57;;;2.27;;
8450;SDS011;4262;50.980;13.892;2023-12-20T11:15:02;8.70;;;2.03;;
8450;SDS011;4262;50.980;13.892;2023-12-20T11:17:31;7.63;;;2.30;;
8450;SDS011;4262;50.980;13.892;2023-12-20T11:20:05;10.13;;;2.70;;
8450;SDS011;4262;50.980;13.892;2023-12-20T11:22:36;8.70;;;2.47;;
8450;SDS011;4262;50.980;13.892;2023-12-20T11:25:04;6.80;;;2.20;;
8450;SDS011;4262;50.980;13.892;2023-12-20T11:27:35;11.33;;;2.80;;
8450;SDS011;4262;50.980;13.892;2023-12-20T11:30:02;7.10;;;2.20;;
8450;SDS011;4262;50.980;13.892;2023-12-20T11:32:33;12.23;;;2.63;;
8450;SDS011;4262;50.980;13.892;2023-12-20T11:35:01;11.97;;;2.70;;
8450;SDS011;4262;50.980;13.892;2023-12-20T11:37:44;7.67;;;2.83;;
8450;SDS011;4262;50.980;13.892;2023-12-20T11:40:13;9.30;;;2.77;;
8450;SDS011;4262;50.980;13.892;2023-12-20T11:42:43;14.53;;;2.83;;
8450;SDS011;4262;50.980;13.892;2023-12-20T11:45:12;8.50;;;2.43;;
8450;SDS011;4262;50.980;13.892;2023-12-20T11:47:42;11.03;;;2.77;;
8450;SDS011;4262;50.980;13.892;2023-12-20T11:50:09;10.27;;;3.43;;
8450;SDS011;4262;50.980;13.892;2023-12-20T11:52:36;10.10;;;2.63;;
8450;SDS011;4262;50.980;13.892;2023-12-20T11:55:03;9.57;;;2.90;;
8450;SDS011;4262;50.980;13.892;2023-12-20T11:57:30;13.07;;;2.40;;
8450;SDS011;4262;50.980;13.892;2023-12-20T11:59:59;7.57;;;3.23;;
8450;SDS011;4262;50.980;13.892;2023-12-20T12:02:26;9.20;;;3.73;;
8450;SDS011;4262;50.980;13.892;2023-12-20T12:04:53;9.40;;;3.27;;
8450;SDS011;4262;50.980;13.892;2023-12-20T12:07:20;9.47;;;3.00;;
8450;SDS011;4262;50.980;13.892;2023-12-20T12:09:47;9.03;;;3.80;;
8450;SDS011;4262;50.980;13.892;2023-12-20T12:12:14;8.23;;;2.43;;
8450;SDS011;4262;50.980;13.892;2023-12-20T12:14:41;9.23;;;2.80;;
8450;SDS011;4262;50.980;13.892;2023-12-20T12:17:12;9.23;;;2.90;;
8450;SDS011;4262;50.980;13.892;2023-12-20T12:19:40;9.13;;;3.00;;
8450;SDS011;4262;50.980;13.892;2023-12-20T12:22:07;8.40;;;2.77;;
8450;SDS011;4262;50.980;13.892;2023-12-20T12:24:38;8.73;;;2.93;;
8450;SDS011;4262;50.980;13.892;2023-12-20T12:27:05;10.50;;;2.80;;
8450;SDS011;4262;50.980;13.892;2023-12-20T12:29:32;9.47;;;2.90;;
8450;SDS011;4262;50.980;13.892;2023-12-20T12:31:59;8.53;;;2.40;;
8450;SDS011;4262;50.980;13.892;2023-12-20T12:34:28;8.77;;;2.57;;
8450;SDS011;4262;50.980;13.892;2023-12-20T12:36:55;9.47;;;2.47;;
8450;SDS011;4262;50.980;13.892;2023-12-20T12:39:22;8.93;;;2.47;;
8450;SDS011;4262;50.980;13.892;2023-12-20T12:41:50;9.03;;;2.57;;
8450;SDS011;4262;50.980;13.892;2023-12-20T12:44:17;8.90;;;3.10;;
8450;SDS011;4262;50.980;13.892;2023-12-20T12:46:44;8.73;;;2.47;;
8450;SDS011;4262;50.980;13.892;2023-12-20T12:49:12;11.00;;;3.00;;
8450;SDS011;4262;50.980;13.892;2023-12-20T12:51:40;11.70;;;3.07;;
8450;SDS011;4262;50.980;13.892;2023-12-20T12:54:07;8.47;;;2.67;;
8450;SDS011;4262;50.980;13.892;2023-12-20T12:56:34;8.43;;;2.80;;
8450;SDS011;4262;50.980;13.892;2023-12-20T12:59:01;11.33;;;2.63;;
8450;SDS011;4262;50.980;13.892;2023-12-20T13:01:28;9.90;;;2.93;;
8450;SDS011;4262;50.980;13.892;2023-12-20T13:03:54;8.80;;;2.70;;
8450;SDS011;4262;50.980;13.892;2023-12-20T13:06:21;9.63;;;2.70;;
8450;SDS011;4262;50.980;13.892;2023-12-20T13:08:49;7.93;;;2.30;;
8450;SDS011;4262;50.980;13.892;2023-12-20T13:11:16;7.83;;;2.43;;
8450;SDS011;4262;50.980;13.892;2023-12-20T13:13:43;9.03;;;2.73;;
8450;SDS011;4262;50.980;13.892;2023-12-20T13:16:10;10.47;;;2.80;;
8450;SDS011;4262;50.980;13.892;2023-12-20T13:18:36;8.63;;;2.50;;
8450;SDS011;4262;50.980;13.892;2023-12-20T13:21:07;7.63;;;2.40;;
8450;SDS011;4262;50.980;13.892;2023-12-20T13:23:33;9.00;;;2.50;;
8450;SDS011;4262;50.980;13.892;2023-12-20T13:26:01;7.90;;;2.67;;
8450;SDS011;4262;50.980;13.892;2023-12-20T13:28:28;9.20;;;2.80;;
8450;SDS011;4262;50.980;13.892;2023-12-20T13:30:55;9.13;;;2.53;;
8450;SDS011;4262;50.980;13.892;2023-12-20T13:33:22;9.50;;;3.00;;
8450;SDS011;4262;50.980;13.892;2023-12-20T13:35:48;10.03;;;2.80;;
8450;SDS011;4262;50.980;13.892;2023-12-20T13:38:15;10.07;;;2.60;;
8450;SDS011;4262;50.980;13.892;2023-12-20T13:40:42;12.67;;;3.20;;
8450;SDS011;4262;50.980;13.892;2023-12-20T13:43:10;13.50;;;3.27;;
8450;SDS011;4262;50.980;13.892;2023-12-20T13:45:38;9.03;;;2.80;;
8450;SDS011;4262;50.980;13.892;2023-12-20T13:48:05;13.63;;;2.83;;
8450;SDS011;4262;50.980;13.892;2023-12-20T13:50:32;8.67;;;2.53;;
8450;SDS011;4262;50.980;13.892;2023-12-20T13:52:59;8.83;;;2.90;;
8450;SDS011;4262;50.980;13.892;2023-12-20T13:55:26;9.33;;;2.80;;
8450;SDS011;4262;50.980;13.892;2023-12-20T13:57:53;8.27;;;2.90;;
8450;SDS011;4262;50.980;13.892;2023-12-20T14:00:21;10.63;;;3.13;;
8450;SDS011;4262;50.980;13.892;2023-12-20T14:02:48;6.90;;;2.77;;
8450;SDS011;4262;50.980;13.892;2023-12-20T14:05:17;9.50;;;3.10;;
8450;SDS011;4262;50.980;13.892;2023-12-20T14:07:43;9.33;;;3.30;;
8450;SDS011;4262;50.980;13.892;2023-12-20T14:10:11;10.93;;;2.90;;
8450;SDS011;4262;50.980;13.892;2023-12-20T14:12:38;6.50;;;3.20;;
8450;SDS011;4262;50.980;13.892;2023-12-20T14:15:05;8.00;;;2.90;;
8450;SDS011;4262;50.980;13.892;2023-12-20T14:17:37;7.13;;;2.47;;
8450;SDS011;4262;50.980;13.892;2023-12-20T14:20:05;11.60;;;3.10;;
8450;SDS011;4262;50.980;13.892;2023-12-20T14:22:33;10.47;;;3.10;;
8450;SDS011;4262;50.980;13.892;2023-12-20T14:25:00;7.20;;;2.70;;
8450;SDS011;4262;50.980;13.892;2023-12-20T14:27:27;8.20;;;2.80;;
8450;SDS011;4262;50.980;13.892;2023-12-20T14:29:54;12.80;;;2.87;;
8450;SDS011;4262;50.980;13.892;2023-12-20T14:32:21;7.90;;;3.30;;
8450;SDS011;4262;50.980;13.892;2023-12-20T14:34:49;7.57;;;2.67;;
8450;SDS011;4262;50.980;13.892;2023-12-20T14:37:15;9.37;;;2.90;;
8450;SDS011;4262;50.980;13.892;2023-12-20T14:39:43;7.30;;;3.30;;
8450;SDS011;4262;50.980;13.892;2023-12-20T14:42:10;7.70;;;2.73;;
8450;SDS011;4262;50.980;13.892;2023-12-20T14:44:38;9.03;;;2.80;;
8450;SDS011;4262;50.980;13.892;2023-12-20T14:47:06;7.60;;;3.57;;
8450;SDS011;4262;50.980;13.892;2023-12-20T14:49:33;9.43;;;2.83;;
8450;SDS011;4262;50.980;13.892;2023-12-20T14:52:01;6.50;;;2.87;;
8450;SDS011;4262;50.980;13.892;2023-12-20T14:54:27;7.07;;;2.73;;
8450;SDS011;4262;50.980;13.892;2023-12-20T14:56:54;7.73;;;2.77;;
8450;SDS011;4262;50.980;13.892;2023-12-20T14:59:21;9.23;;;2.97;;
8450;SDS011;4262;50.980;13.892;2023-12-20T15:01:48;7.13;;;2.93;;
8450;SDS011;4262;50.980;13.892;2023-12-20T15:04:16;7.30;;;2.83;;